createdAt,value
2018-05-23T00:00:32.492Z,6.80
2018-05-23T00:01:32.553Z,5.90
2018-05-23T00:02:32.617Z,5.90
2018-05-23T00:03:32.672Z,8.30
2018-05-23T00:04:32.733Z,5.60
2018-05-23T00:05:32.793Z,6.90
2018-05-23T00:06:32.854Z,6.10
2018-05-23T00:07:32.916Z,6.30
2018-05-23T00:08:32.979Z,8.90
2018-05-23T00:09:33.035Z,6.60
2018-05-23T00:10:33.095Z,6.50
2018-05-23T00:11:33.157Z,8.20
2018-05-23T00:12:33.217Z,7.00
2018-05-23T00:13:33.280Z,6.80
2018-05-23T00:14:33.339Z,5.60
2018-05-23T00:15:33.398Z,6.30
2018-05-23T00:16:33.457Z,8.00
2018-05-23T00:17:33.518Z,6.70
2018-05-23T00:18:33.828Z,5.60
2018-05-23T00:19:33.639Z,7.90
2018-05-23T00:20:33.701Z,6.90
2018-05-23T00:21:33.760Z,5.80
2018-05-23T00:22:33.821Z,10.80
2018-05-23T00:23:33.880Z,5.70
2018-05-23T00:24:33.940Z,7.90
2018-05-23T00:25:33.999Z,7.10
2018-05-23T00:26:34.062Z,6.80
2018-05-23T00:27:34.121Z,6.60
2018-05-23T00:28:34.181Z,7.20
2018-05-23T00:29:34.241Z,6.30
2018-05-23T00:30:34.300Z,9.10
2018-05-23T00:31:34.362Z,7.10
2018-05-23T00:32:34.423Z,13.50
2018-05-23T00:33:34.482Z,9.10
2018-05-23T00:34:34.543Z,8.10
2018-05-23T00:35:34.609Z,7.10
2018-05-23T00:36:34.664Z,8.10
2018-05-23T00:37:34.722Z,7.70
2018-05-23T00:38:34.785Z,6.20
2018-05-23T00:39:34.844Z,6.50
2018-05-23T00:40:34.904Z,6.40
2018-05-23T00:41:34.965Z,6.40
2018-05-23T00:42:35.692Z,5.00
2018-05-23T00:43:35.193Z,8.70
2018-05-23T00:44:35.724Z,9.60
2018-05-23T00:45:35.813Z,6.40
2018-05-23T00:46:35.964Z,7.30
2018-05-23T00:47:36.175Z,6.10
2018-05-23T00:48:36.060Z,8.00
2018-05-23T00:49:36.010Z,6.80
2018-05-23T00:50:36.039Z,6.80
2018-05-23T00:51:36.135Z,8.30
2018-05-23T00:52:35.627Z,6.80
2018-05-23T00:53:35.685Z,6.90
2018-05-23T00:54:35.746Z,7.90
2018-05-23T00:55:35.805Z,6.20
2018-05-23T00:56:35.866Z,6.20
2018-05-23T00:57:35.925Z,5.40
2018-05-23T00:58:35.987Z,8.50
2018-05-23T00:59:36.047Z,8.80
2018-05-23T01:00:36.108Z,5.70
2018-05-23T01:01:36.166Z,9.20
2018-05-23T01:02:36.227Z,8.00
2018-05-23T01:03:36.286Z,7.40
2018-05-23T01:04:36.347Z,6.10
2018-05-23T01:05:36.407Z,5.30
2018-05-23T01:06:36.468Z,9.30
2018-05-23T01:07:36.527Z,7.90
2018-05-23T01:08:36.588Z,8.30
2018-05-23T01:09:36.647Z,5.30
2018-05-23T01:10:36.708Z,8.20
2018-05-23T01:11:36.768Z,8.00
2018-05-23T01:12:36.828Z,6.70
2018-05-23T01:13:36.888Z,5.90
2018-05-23T01:14:36.950Z,6.60
2018-05-23T01:15:37.009Z,8.80
2018-05-23T01:16:37.469Z,9.00
2018-05-23T01:17:37.128Z,6.80
2018-05-23T01:18:37.190Z,7.40
2018-05-23T01:19:37.249Z,6.60
2018-05-23T01:20:37.311Z,8.60
2018-05-23T01:21:37.367Z,6.90
2018-05-23T01:22:37.429Z,5.70
2018-05-23T01:23:37.489Z,5.30
2018-05-23T01:24:37.550Z,6.60
2018-05-23T01:25:37.608Z,5.70
2018-05-23T01:26:37.670Z,7.10
2018-05-23T01:27:37.738Z,6.10
2018-05-23T01:28:37.789Z,7.70
2018-05-23T01:29:37.849Z,6.80
2018-05-23T01:30:37.908Z,8.30
2018-05-23T01:31:37.969Z,6.50
2018-05-23T01:32:38.029Z,5.70
2018-05-23T01:33:38.089Z,6.80
2018-05-23T01:34:38.148Z,5.30
2018-05-23T01:35:38.209Z,5.80
2018-05-23T01:36:38.270Z,5.90
2018-05-23T01:37:38.329Z,6.20
2018-05-23T01:38:38.389Z,6.70
2018-05-23T01:39:38.450Z,6.10
2018-05-23T01:40:38.509Z,7.90
2018-05-23T01:41:38.570Z,10.30
2018-05-23T01:42:38.629Z,6.90
2018-05-23T01:43:38.689Z,6.30
2018-05-23T01:44:38.749Z,7.00
2018-05-23T01:45:38.810Z,8.30
2018-05-23T01:46:38.908Z,5.90
2018-05-23T01:47:38.932Z,8.20
2018-05-23T01:48:38.990Z,5.80
2018-05-23T01:49:39.050Z,5.80
2018-05-23T01:50:39.109Z,6.90
2018-05-23T01:51:39.171Z,6.70
2018-05-23T01:52:39.239Z,6.70
2018-05-23T01:53:39.289Z,7.80
2018-05-23T01:54:39.424Z,6.70
2018-05-23T01:55:39.411Z,6.90
2018-05-23T01:56:39.621Z,6.00
2018-05-23T01:57:39.530Z,7.60
2018-05-23T01:58:39.591Z,8.20
2018-05-23T01:59:39.652Z,8.60
2018-05-23T02:00:39.712Z,6.40
2018-05-23T02:01:39.770Z,8.00
2018-05-23T02:02:39.833Z,6.80
2018-05-23T02:03:39.892Z,9.20
2018-05-23T02:04:39.952Z,7.70
2018-05-23T02:05:40.012Z,8.90
2018-05-23T02:06:40.071Z,8.70
2018-05-23T02:07:40.466Z,7.40
2018-05-23T02:08:40.193Z,7.80
2018-05-23T02:09:40.251Z,5.70
2018-05-23T02:10:40.311Z,7.30
2018-05-23T02:11:40.372Z,8.20
2018-05-23T02:12:40.432Z,8.30
2018-05-23T02:13:40.498Z,8.30
2018-05-23T02:14:40.553Z,6.80
2018-05-23T02:15:40.613Z,8.10
2018-05-23T02:16:40.673Z,8.10
2018-05-23T02:17:40.731Z,9.50
2018-05-23T02:18:40.793Z,7.40
2018-05-23T02:19:40.854Z,7.10
2018-05-23T02:20:40.924Z,10.70
2018-05-23T02:21:40.972Z,8.30
2018-05-23T02:22:41.033Z,12.00
2018-05-23T02:23:41.094Z,9.10
2018-05-23T02:24:41.154Z,9.90
2018-05-23T02:25:41.217Z,10.80
2018-05-23T02:26:41.275Z,10.50
2018-05-23T02:27:41.334Z,9.40
2018-05-23T02:28:41.966Z,7.40
2018-05-23T02:29:41.454Z,10.90
2018-05-23T02:30:41.592Z,9.90
2018-05-23T02:31:41.576Z,6.80
2018-05-23T02:32:41.636Z,6.90
2018-05-23T02:33:41.696Z,7.00
2018-05-23T02:34:41.758Z,9.80
2018-05-23T02:35:42.071Z,6.90
2018-05-23T02:36:41.876Z,7.90
2018-05-23T02:37:41.939Z,7.30
2018-05-23T02:38:41.996Z,6.70
2018-05-23T02:39:42.060Z,10.20
2018-05-23T02:40:42.117Z,8.60
2018-05-23T02:41:42.178Z,10.90
2018-05-23T02:42:42.241Z,8.70
2018-05-23T02:43:42.298Z,7.40
2018-05-23T02:44:42.357Z,6.80
2018-05-23T02:45:42.418Z,11.10
2018-05-23T02:46:42.730Z,9.70
2018-05-23T02:47:42.539Z,11.60
2018-05-23T02:48:42.600Z,9.30
2018-05-23T02:49:42.659Z,9.10
2018-05-23T02:50:42.719Z,7.70
2018-05-23T02:51:42.780Z,7.60
2018-05-23T02:52:42.839Z,6.80
2018-05-23T02:53:42.900Z,8.00
2018-05-23T02:54:42.960Z,7.10
2018-05-23T02:55:43.021Z,7.20
2018-05-23T02:56:43.080Z,6.50
2018-05-23T02:57:43.140Z,6.70
2018-05-23T02:58:43.200Z,7.80
2018-05-23T02:59:43.260Z,6.60
2018-05-23T03:00:43.321Z,9.70
2018-05-23T03:01:43.381Z,8.10
2018-05-23T03:02:43.442Z,8.00
2018-05-23T03:03:43.503Z,6.80
2018-05-23T03:04:43.564Z,7.70
2018-05-23T03:05:43.622Z,10.10
2018-05-23T03:06:43.682Z,6.80
2018-05-23T03:07:43.743Z,7.00
2018-05-23T03:08:43.802Z,9.70
2018-05-23T03:09:43.861Z,8.60
2018-05-23T03:10:43.924Z,13.50
2018-05-23T03:11:43.983Z,6.90
2018-05-23T03:12:44.043Z,7.50
2018-05-23T03:13:44.101Z,9.60
2018-05-23T03:14:44.162Z,8.90
2018-05-23T03:15:44.372Z,6.50
2018-05-23T03:16:44.284Z,7.70
2018-05-23T03:17:44.342Z,8.50
2018-05-23T03:18:44.402Z,8.70
2018-05-23T03:19:44.464Z,11.50
2018-05-23T03:20:44.524Z,10.20
2018-05-23T03:21:44.583Z,10.80
2018-05-23T03:22:44.644Z,9.40
2018-05-23T03:23:44.704Z,11.10
2018-05-23T03:24:44.765Z,11.20
2018-05-23T03:25:44.824Z,7.90
2018-05-23T03:26:44.884Z,8.10
2018-05-23T03:27:44.945Z,7.50
2018-05-23T03:28:45.005Z,7.70
2018-05-23T03:29:45.066Z,12.20
2018-05-23T03:30:45.125Z,8.40
2018-05-23T03:31:45.188Z,10.20
2018-05-23T03:32:45.495Z,10.50
2018-05-23T03:33:45.305Z,7.50
2018-05-23T03:34:45.365Z,10.90
2018-05-23T03:35:45.424Z,8.60
2018-05-23T03:36:45.486Z,8.60
2018-05-23T03:37:45.545Z,9.90
2018-05-23T03:38:45.605Z,11.00
2018-05-23T03:39:45.664Z,8.60
2018-05-23T03:40:45.727Z,10.30
2018-05-23T03:41:45.784Z,10.10
2018-05-23T03:42:45.845Z,9.80
2018-05-23T03:43:45.905Z,10.20
2018-05-23T03:44:45.970Z,8.30
2018-05-23T03:45:46.025Z,9.70
2018-05-23T03:46:46.085Z,9.30
2018-05-23T03:47:46.147Z,9.10
2018-05-23T03:48:46.205Z,10.10
2018-05-23T03:49:46.266Z,12.40
2018-05-23T03:50:46.326Z,8.20
2018-05-23T03:51:46.389Z,8.90
2018-05-23T03:52:46.446Z,9.10
2018-05-23T03:53:46.505Z,10.80
2018-05-23T03:54:46.567Z,10.70
2018-05-23T03:55:46.627Z,7.40
2018-05-23T03:56:46.687Z,8.90
2018-05-23T03:57:46.762Z,7.90
2018-05-23T03:58:46.806Z,7.90
2018-05-23T03:59:46.867Z,10.10
2018-05-23T04:00:46.927Z,8.00
2018-05-23T04:01:46.987Z,7.50
2018-05-23T04:02:47.046Z,9.10
2018-05-23T04:03:47.110Z,6.80
2018-05-23T04:04:47.236Z,8.60
2018-05-23T04:05:47.225Z,9.70
2018-05-23T04:06:47.286Z,8.90
2018-05-23T04:07:47.346Z,6.60
2018-05-23T04:08:47.407Z,7.60
2018-05-23T04:09:47.493Z,9.60
2018-05-23T04:10:47.526Z,8.50
2018-05-23T04:11:47.836Z,8.30
2018-05-23T04:12:47.647Z,9.00
2018-05-23T04:13:47.707Z,9.90
2018-05-23T04:14:47.767Z,9.80
2018-05-23T04:15:47.832Z,12.00
2018-05-23T04:16:48.290Z,9.10
2018-05-23T04:17:47.947Z,7.10
2018-05-23T04:18:48.007Z,7.10
2018-05-23T04:19:48.069Z,9.30
2018-05-23T04:20:48.127Z,9.60
2018-05-23T04:21:48.187Z,6.50
2018-05-23T04:22:48.248Z,9.90
2018-05-23T04:23:48.308Z,6.90
2018-05-23T04:24:48.379Z,6.70
2018-05-23T04:25:48.484Z,6.80
2018-05-23T04:26:48.488Z,9.50
2018-05-23T04:27:48.551Z,8.90
2018-05-23T04:28:48.609Z,7.90
2018-05-23T04:29:48.669Z,9.20
2018-05-23T04:30:48.728Z,6.80
2018-05-23T04:31:48.790Z,10.30
2018-05-23T04:32:48.848Z,7.40
2018-05-23T04:33:48.910Z,8.10
2018-05-23T04:34:48.969Z,6.10
2018-05-23T04:35:49.029Z,7.30
2018-05-23T04:36:49.090Z,6.80
2018-05-23T04:37:49.150Z,6.50
2018-05-23T04:38:49.214Z,6.80
2018-05-23T04:39:49.525Z,8.60
2018-05-23T04:40:49.338Z,10.30
2018-05-23T04:41:49.497Z,9.30
2018-05-23T04:42:49.451Z,8.50
2018-05-23T04:43:49.512Z,7.50
2018-05-23T04:44:49.573Z,8.40
2018-05-23T04:45:49.633Z,7.30
2018-05-23T04:46:49.692Z,12.20
2018-05-23T04:47:49.753Z,6.90
2018-05-23T04:48:49.873Z,8.40
2018-05-23T04:49:49.874Z,6.80
2018-05-23T04:50:49.934Z,7.80
2018-05-23T04:51:49.994Z,7.50
2018-05-23T04:52:50.060Z,8.00
2018-05-23T04:53:50.114Z,8.90
2018-05-23T04:54:50.175Z,7.70
2018-05-23T04:55:50.244Z,7.30
2018-05-23T04:56:50.336Z,8.10
2018-05-23T04:57:50.356Z,7.50
2018-05-23T04:58:50.416Z,7.80
2018-05-23T04:59:50.478Z,7.30
2018-05-23T05:00:50.538Z,10.70
2018-05-23T05:01:50.598Z,6.80
2018-05-23T05:02:50.659Z,8.90
2018-05-23T05:03:50.729Z,8.20
2018-05-23T05:04:50.781Z,8.00
2018-05-23T05:05:50.839Z,8.90
2018-05-23T05:06:50.901Z,6.50
2018-05-23T05:07:50.961Z,6.60
2018-05-23T05:08:51.022Z,6.80
2018-05-23T05:09:51.086Z,9.80
2018-05-23T05:10:51.144Z,6.60
2018-05-23T05:11:51.203Z,8.20
2018-05-23T05:12:51.265Z,7.40
2018-05-23T05:13:51.359Z,6.90
2018-05-23T05:14:51.386Z,5.90
2018-05-23T05:15:51.446Z,6.30
2018-05-23T05:16:51.518Z,6.40
2018-05-23T05:17:51.568Z,7.40
2018-05-23T05:18:51.632Z,7.10
2018-05-23T05:19:51.689Z,6.90
2018-05-23T05:20:51.751Z,7.80
2018-05-23T05:21:51.810Z,9.30
2018-05-23T05:22:51.872Z,6.20
2018-05-23T05:23:51.932Z,8.80
2018-05-23T05:24:52.025Z,7.70
2018-05-23T05:25:52.053Z,7.00
2018-05-23T05:26:52.115Z,6.10
2018-05-23T05:27:52.177Z,7.80
2018-05-23T05:28:52.237Z,6.00
2018-05-23T05:29:52.305Z,6.60
2018-05-23T05:30:52.358Z,7.10
2018-05-23T05:31:52.431Z,7.10
2018-05-23T05:32:52.480Z,6.00
2018-05-23T05:33:52.542Z,7.30
2018-05-23T05:34:52.603Z,6.70
2018-05-23T05:35:53.004Z,7.10
2018-05-23T05:36:52.726Z,6.70
2018-05-23T05:37:52.786Z,6.20
2018-05-23T05:38:52.934Z,7.10
2018-05-23T05:39:52.907Z,7.40
2018-05-23T05:40:52.974Z,6.50
2018-05-23T05:41:53.029Z,8.40
2018-05-23T05:42:53.090Z,7.30
2018-05-23T05:43:53.152Z,7.80
2018-05-23T05:44:53.214Z,6.00
2018-05-23T05:45:53.277Z,8.10
2018-05-23T05:46:53.384Z,7.10
2018-05-23T05:47:53.397Z,6.30
2018-05-23T05:48:53.458Z,7.60
2018-05-23T05:49:53.520Z,7.00
2018-05-23T05:50:53.582Z,9.00
2018-05-23T05:51:53.645Z,10.10
2018-05-23T05:52:53.717Z,7.50
2018-05-23T05:53:53.767Z,6.90
2018-05-23T05:54:53.831Z,8.70
2018-05-23T05:55:53.891Z,7.90
2018-05-23T05:56:53.956Z,6.70
2018-05-23T05:57:54.015Z,7.40
2018-05-23T05:58:54.079Z,8.60
2018-05-23T05:59:54.139Z,8.30
2018-05-23T06:00:54.203Z,8.00
2018-05-23T06:01:54.336Z,8.90
2018-05-23T06:02:54.324Z,8.60
2018-05-23T06:03:54.387Z,7.80
2018-05-23T06:04:54.449Z,8.80
2018-05-23T06:05:54.511Z,8.60
2018-05-23T06:06:54.574Z,7.30
2018-05-23T06:07:54.638Z,8.40
2018-05-23T06:08:54.700Z,9.10
2018-05-23T06:09:54.834Z,10.40
2018-05-23T06:10:54.824Z,8.10
2018-05-23T06:11:54.886Z,10.40
2018-05-23T06:12:54.949Z,9.20
2018-05-23T06:13:55.011Z,7.00
2018-05-23T06:14:55.106Z,7.30
2018-05-23T06:15:55.138Z,8.70
2018-05-23T06:16:55.200Z,7.90
2018-05-23T06:17:55.265Z,8.80
2018-05-23T06:18:55.325Z,8.50
2018-05-23T06:19:55.387Z,8.40
2018-05-23T06:20:55.452Z,7.90
2018-05-23T06:21:55.514Z,8.70
2018-05-23T06:22:55.576Z,6.60
2018-05-23T06:23:55.639Z,8.40
2018-05-23T06:24:55.701Z,9.40
2018-05-23T06:25:55.764Z,8.80
2018-05-23T06:26:55.827Z,9.00
2018-05-23T06:27:55.894Z,8.10
2018-05-23T06:28:55.954Z,10.60
2018-05-23T06:29:56.019Z,10.60
2018-05-23T06:31:56.142Z,8.90
2018-05-23T06:32:56.207Z,8.20
2018-05-23T06:33:56.469Z,8.10
2018-05-23T06:34:56.335Z,8.20
2018-05-23T06:35:56.960Z,7.50
2018-05-23T06:36:56.462Z,11.00
2018-05-23T06:37:56.522Z,14.30
2018-05-23T06:38:56.585Z,10.50
2018-05-23T06:39:56.649Z,7.60
2018-05-23T06:40:56.713Z,7.90
2018-05-23T06:41:56.773Z,9.50
2018-05-23T06:42:56.838Z,7.70
2018-05-23T06:43:56.902Z,8.40
2018-05-23T06:44:56.970Z,8.80
2018-05-23T06:45:57.037Z,9.20
2018-05-23T06:46:57.093Z,11.00
2018-05-23T06:47:57.155Z,10.70
2018-05-23T06:48:57.220Z,11.60
2018-05-23T06:49:57.364Z,8.00
2018-05-23T06:50:57.347Z,8.10
2018-05-23T06:51:57.411Z,7.80
2018-05-23T06:52:58.075Z,9.10
2018-05-23T06:53:57.539Z,8.90
2018-05-23T06:54:57.602Z,7.70
2018-05-23T06:55:57.665Z,8.90
2018-05-23T06:56:57.729Z,8.10
2018-05-23T06:57:57.793Z,11.20
2018-05-23T06:58:57.856Z,8.60
2018-05-23T06:59:57.922Z,10.60
2018-05-23T07:00:57.986Z,10.30
2018-05-23T07:01:58.054Z,10.70
2018-05-23T07:02:58.116Z,9.30
2018-05-23T07:03:58.177Z,9.10
2018-05-23T07:04:58.247Z,12.80
2018-05-23T07:05:58.305Z,10.00
2018-05-23T07:06:58.369Z,9.20
2018-05-23T07:07:58.434Z,9.00
2018-05-23T07:08:58.498Z,9.90
2018-05-23T07:09:58.561Z,9.50
2018-05-23T07:10:58.650Z,9.80
2018-05-23T07:11:58.690Z,8.50
2018-05-23T07:12:58.756Z,9.40
2018-05-23T07:13:58.820Z,10.80
2018-05-23T07:14:58.884Z,8.70
2018-05-23T07:15:58.949Z,9.00
2018-05-23T07:16:59.013Z,9.60
2018-05-23T07:17:59.143Z,9.30
2018-05-23T07:18:59.143Z,9.40
2018-05-23T07:19:59.209Z,9.30
2018-05-23T07:20:59.271Z,9.50
2018-05-23T07:21:59.337Z,9.20
2018-05-23T07:22:59.400Z,9.30
2018-05-23T07:23:59.465Z,9.40
2018-05-23T07:24:59.554Z,11.30
2018-05-23T07:25:59.666Z,9.60
2018-05-23T07:26:59.660Z,10.10
2018-05-23T07:27:59.726Z,8.60
2018-05-23T07:28:59.790Z,9.50
2018-05-23T07:29:59.854Z,11.90
2018-05-23T07:30:59.921Z,11.80
2018-05-23T07:31:59.986Z,10.70
2018-05-23T07:33:00.052Z,12.40
2018-05-23T07:34:00.116Z,10.50
2018-05-23T07:35:00.185Z,8.80
2018-05-23T07:36:00.248Z,9.00
2018-05-23T07:37:00.465Z,8.00
2018-05-23T07:38:00.379Z,8.50
2018-05-23T07:39:00.450Z,11.50
2018-05-23T07:40:00.509Z,10.40
2018-05-23T07:41:00.576Z,7.80
2018-05-23T07:42:00.649Z,9.60
2018-05-23T07:43:00.706Z,9.30
2018-05-23T07:44:00.773Z,8.30
2018-05-23T07:45:00.840Z,8.30
2018-05-23T07:46:00.904Z,8.90
2018-05-23T07:47:00.971Z,9.90
2018-05-23T07:48:01.039Z,8.30
2018-05-23T07:49:01.102Z,9.40
2018-05-23T07:50:01.167Z,9.80
2018-05-23T07:51:01.235Z,10.50
2018-05-23T07:52:01.760Z,9.50
2018-05-23T07:53:01.367Z,9.80
2018-05-23T07:54:01.436Z,7.20
2018-05-23T07:55:02.062Z,8.20
2018-05-23T07:56:01.561Z,9.40
2018-05-23T07:57:01.626Z,9.00
2018-05-23T07:58:01.708Z,9.50
2018-05-23T07:59:01.759Z,8.40
2018-05-23T08:00:01.825Z,8.40
2018-05-23T08:01:01.891Z,8.40
2018-05-23T08:02:01.955Z,9.80
2018-05-23T08:03:02.027Z,8.60
2018-05-23T08:04:02.089Z,8.40
2018-05-23T08:05:02.159Z,9.70
2018-05-23T08:06:02.222Z,7.40
2018-05-23T08:07:02.287Z,8.60
2018-05-23T08:08:02.357Z,10.60
2018-05-23T08:09:02.422Z,9.30
2018-05-23T08:10:02.487Z,9.00
2018-05-23T08:11:02.554Z,8.60
2018-05-23T08:12:02.620Z,11.20
2018-05-23T08:13:02.710Z,10.10
2018-05-23T08:14:02.752Z,8.20
2018-05-23T08:15:02.820Z,8.80
2018-05-23T08:16:02.887Z,11.70
2018-05-23T08:17:02.953Z,10.60
2018-05-23T08:18:03.018Z,10.10
2018-05-23T08:19:03.085Z,9.00
2018-05-23T08:20:03.151Z,8.30
2018-05-23T08:21:03.568Z,8.80
2018-05-23T08:22:03.285Z,7.40
2018-05-23T08:23:03.352Z,10.20
2018-05-23T08:24:03.417Z,9.20
2018-05-23T08:25:03.487Z,9.20
2018-05-23T08:26:04.140Z,9.50
2018-05-23T08:27:03.618Z,9.90
2018-05-23T08:28:03.683Z,11.20
2018-05-23T08:29:03.749Z,8.90
2018-05-23T08:30:03.816Z,11.50
2018-05-23T08:31:03.886Z,8.20
2018-05-23T08:32:03.947Z,9.00
2018-05-23T08:33:04.015Z,7.70
2018-05-23T08:34:04.653Z,9.20
2018-05-23T08:35:04.147Z,8.20
2018-05-23T08:36:04.640Z,9.70
2018-05-23T08:37:04.281Z,8.60
2018-05-23T08:38:04.348Z,9.10
2018-05-23T08:39:04.414Z,9.10
2018-05-23T08:40:05.679Z,8.50
2018-05-23T08:41:04.548Z,9.10
2018-05-23T08:42:04.614Z,10.50
2018-05-23T08:43:04.681Z,9.40
2018-05-23T08:44:04.748Z,11.10
2018-05-23T08:45:04.816Z,7.30
2018-05-23T08:46:04.954Z,8.10
2018-05-23T08:47:04.948Z,9.90
2018-05-23T08:48:05.013Z,11.40
2018-05-23T08:49:05.081Z,9.10
2018-05-23T08:50:05.147Z,7.80
2018-05-23T08:51:05.220Z,9.30
2018-05-23T08:52:05.299Z,9.90
2018-05-23T08:53:05.347Z,9.00
2018-05-23T08:54:05.412Z,10.10
2018-05-23T08:55:05.479Z,8.50
2018-05-23T08:56:05.547Z,10.60
2018-05-23T08:57:05.614Z,12.30
2018-05-23T08:58:05.688Z,11.40
2018-05-23T08:59:05.746Z,9.40
2018-05-23T09:00:05.813Z,11.40
2018-05-23T09:01:05.881Z,11.20
2018-05-23T09:02:05.946Z,11.80
2018-05-23T09:03:06.013Z,10.70
2018-05-23T09:04:06.080Z,11.00
2018-05-23T09:05:06.183Z,13.30
2018-05-23T09:06:06.217Z,13.00
2018-05-23T09:07:06.279Z,12.60
2018-05-23T09:08:06.350Z,13.00
2018-05-23T09:09:06.413Z,13.80
2018-05-23T09:10:06.484Z,9.90
2018-05-23T09:11:06.548Z,11.30
2018-05-23T09:12:06.622Z,11.60
2018-05-23T09:13:06.831Z,11.00
2018-05-23T09:14:06.747Z,11.90
2018-05-23T09:15:06.814Z,11.70
2018-05-23T09:16:06.882Z,11.80
2018-05-23T09:17:06.950Z,12.40
2018-05-23T09:18:07.015Z,11.20
2018-05-23T09:19:07.082Z,11.10
2018-05-23T09:20:07.150Z,10.70
2018-05-23T09:21:07.218Z,10.70
2018-05-23T09:22:07.287Z,9.90
2018-05-23T09:23:07.350Z,10.70
2018-05-23T09:24:07.422Z,12.60
2018-05-23T09:25:07.487Z,9.60
2018-05-23T09:26:07.553Z,11.60
2018-05-23T09:27:07.619Z,9.60
2018-05-23T09:28:07.686Z,10.40
2018-05-23T09:29:07.758Z,13.20
2018-05-23T09:30:07.821Z,10.10
2018-05-23T09:31:07.888Z,13.00
2018-05-23T09:32:07.964Z,11.20
2018-05-23T09:33:08.024Z,10.20
2018-05-23T09:34:08.091Z,12.30
2018-05-23T09:35:08.157Z,11.00
2018-05-23T09:36:08.232Z,11.50
2018-05-23T09:37:08.291Z,10.90
2018-05-23T09:38:08.356Z,12.70
2018-05-23T09:39:08.492Z,10.20
2018-05-23T09:40:08.491Z,11.20
2018-05-23T09:41:08.560Z,13.90
2018-05-23T09:42:08.624Z,13.00
2018-05-23T09:43:08.691Z,12.20
2018-05-23T09:44:08.758Z,12.20
2018-05-23T09:45:08.922Z,10.60
2018-05-23T09:46:08.892Z,13.40
2018-05-23T09:47:08.958Z,12.50
2018-05-23T09:48:09.025Z,16.10
2018-05-23T09:49:09.093Z,12.50
2018-05-23T09:50:09.159Z,13.10
2018-05-23T09:51:09.226Z,12.50
2018-05-23T09:52:09.293Z,12.20
2018-05-23T09:53:09.361Z,13.40
2018-05-23T09:54:09.427Z,13.80
2018-05-23T09:55:09.597Z,14.20
2018-05-23T09:56:09.559Z,13.90
2018-05-23T09:57:09.627Z,16.40
2018-05-23T09:58:09.693Z,12.90
2018-05-23T09:59:09.762Z,13.30
2018-05-23T10:00:09.827Z,15.20
2018-05-23T10:01:09.894Z,15.00
2018-05-23T10:02:09.959Z,13.00
2018-05-23T10:03:10.029Z,13.10
2018-05-23T10:04:10.093Z,12.70
2018-05-23T10:05:10.160Z,12.30
2018-05-23T10:06:10.227Z,13.90
2018-05-23T10:07:10.292Z,11.90
2018-05-23T10:08:10.360Z,15.20
2018-05-23T10:09:10.431Z,12.80
2018-05-23T10:10:10.493Z,15.10
2018-05-23T10:11:10.713Z,14.30
2018-05-23T10:12:10.627Z,12.20
2018-05-23T10:13:10.694Z,16.50
2018-05-23T10:14:10.762Z,15.40
2018-05-23T10:15:10.828Z,14.90
2018-05-23T10:16:10.897Z,16.10
2018-05-23T10:17:10.969Z,17.70
2018-05-23T10:18:11.031Z,16.80
2018-05-23T10:19:11.100Z,17.60
2018-05-23T10:20:11.167Z,13.40
2018-05-23T10:21:11.242Z,14.50
2018-05-23T10:22:11.553Z,14.00
2018-05-23T10:23:11.373Z,19.00
2018-05-23T10:24:11.441Z,15.70
2018-05-23T10:25:11.508Z,18.30
2018-05-23T10:26:11.579Z,15.40
2018-05-23T10:27:11.645Z,15.30
2018-05-23T10:28:11.715Z,14.40
2018-05-23T10:29:11.784Z,12.70
2018-05-23T10:30:11.852Z,13.60
2018-05-23T10:31:11.923Z,12.90
2018-05-23T10:32:11.992Z,13.90
2018-05-23T10:33:12.068Z,12.00
2018-05-23T10:34:12.129Z,11.70
2018-05-23T10:35:12.201Z,11.40
2018-05-23T10:36:12.273Z,11.80
2018-05-23T10:37:12.345Z,10.10
2018-05-23T10:38:12.410Z,12.10
2018-05-23T10:39:12.673Z,10.90
2018-05-23T10:40:12.551Z,12.40
2018-05-23T10:41:12.622Z,11.10
2018-05-23T10:42:12.691Z,10.20
2018-05-23T10:43:12.761Z,11.10
2018-05-23T10:44:12.982Z,11.00
2018-05-23T10:45:12.901Z,10.20
2018-05-23T10:46:12.986Z,10.90
2018-05-23T10:47:13.042Z,10.90
2018-05-23T10:48:13.113Z,11.50
2018-05-23T10:49:13.183Z,10.20
2018-05-23T10:50:13.252Z,10.70
2018-05-23T10:51:13.327Z,12.70
2018-05-23T10:52:13.393Z,12.70
2018-05-23T10:53:13.462Z,11.70
2018-05-23T10:54:13.576Z,10.60
2018-05-23T10:55:13.604Z,11.20
2018-05-23T10:56:13.675Z,10.90
2018-05-23T10:57:13.817Z,12.00
2018-05-23T10:58:13.816Z,8.50
2018-05-23T10:59:13.889Z,13.60
2018-05-23T11:00:14.019Z,11.60
2018-05-23T11:01:14.031Z,11.10
2018-05-23T11:02:14.101Z,9.30
2018-05-23T11:03:14.177Z,12.80
2018-05-23T11:04:14.246Z,9.00
2018-05-23T11:05:14.318Z,12.80
2018-05-23T11:06:14.390Z,15.60
2018-05-23T11:07:14.461Z,10.80
2018-05-23T11:08:14.536Z,10.90
2018-05-23T11:09:14.605Z,12.50
2018-05-23T11:10:14.677Z,10.40
2018-05-23T11:11:14.748Z,10.50
2018-05-23T11:12:14.820Z,10.10
2018-05-23T11:13:14.892Z,6.50
2018-05-23T11:14:14.967Z,8.70
2018-05-23T11:15:15.086Z,9.40
2018-05-23T11:16:15.109Z,7.30
2018-05-23T11:17:15.181Z,8.10
2018-05-23T11:18:15.253Z,8.30
2018-05-23T11:19:15.325Z,9.50
2018-05-23T11:20:15.399Z,10.00
2018-05-23T11:21:15.471Z,8.60
2018-05-23T11:22:15.542Z,8.40
2018-05-23T11:23:15.614Z,7.70
2018-05-23T11:24:15.689Z,7.30
2018-05-23T11:25:15.761Z,7.60
2018-05-23T11:26:15.840Z,9.90
2018-05-23T11:27:15.906Z,8.20
2018-05-23T11:28:15.980Z,8.00
2018-05-23T11:29:16.070Z,7.00
2018-05-23T11:30:16.127Z,7.10
2018-05-23T11:31:16.201Z,11.20
2018-05-23T11:32:16.274Z,8.30
2018-05-23T11:33:16.369Z,7.10
2018-05-23T11:34:16.420Z,7.60
2018-05-23T11:35:16.496Z,8.30
2018-05-23T11:36:16.569Z,7.60
2018-05-23T11:37:16.666Z,7.80
2018-05-23T11:38:16.716Z,6.00
2018-05-23T11:39:16.791Z,7.10
2018-05-23T11:40:16.869Z,8.60
2018-05-23T11:41:16.940Z,8.70
2018-05-23T11:42:17.013Z,7.70
2018-05-23T11:43:17.087Z,8.60
2018-05-23T11:44:17.162Z,9.40
2018-05-23T11:45:17.242Z,10.70
2018-05-23T11:46:17.313Z,6.30
2018-05-23T11:47:17.426Z,8.00
2018-05-23T11:48:17.456Z,8.30
2018-05-23T11:49:17.528Z,6.20
2018-05-23T11:50:17.615Z,7.00
2018-05-23T11:51:17.676Z,7.00
2018-05-23T11:52:17.830Z,7.50
2018-05-23T11:53:17.819Z,7.40
2018-05-23T11:54:17.891Z,6.90
2018-05-23T11:55:17.964Z,7.30
2018-05-23T11:56:18.035Z,9.90
2018-05-23T11:57:18.108Z,6.80
2018-05-23T11:58:18.178Z,6.80
2018-05-23T11:59:18.250Z,7.50
2018-05-23T12:00:18.321Z,8.20
2018-05-23T12:01:18.395Z,6.70
2018-05-23T12:02:18.492Z,7.50
2018-05-23T12:03:18.538Z,8.90
2018-05-23T12:04:18.607Z,7.00
2018-05-23T12:05:18.678Z,7.80
2018-05-23T12:06:18.747Z,6.40
2018-05-23T12:07:18.817Z,7.20
2018-05-23T12:08:18.887Z,9.80
2018-05-23T12:09:18.958Z,9.30
2018-05-23T12:10:19.063Z,8.70
2018-05-23T12:11:19.098Z,7.40
2018-05-23T12:12:19.169Z,9.30
2018-05-23T12:13:19.242Z,8.10
2018-05-23T12:14:19.458Z,7.10
2018-05-23T12:15:19.378Z,6.70
2018-05-23T12:16:19.448Z,8.80
2018-05-23T12:17:19.518Z,7.50
2018-05-23T12:18:19.587Z,8.30
2018-05-23T12:19:19.657Z,9.50
2018-05-23T12:20:19.727Z,8.30
2018-05-23T12:21:20.248Z,9.10
2018-05-23T12:22:19.865Z,7.70
2018-05-23T12:23:19.934Z,10.10
2018-05-23T12:24:20.005Z,10.80
2018-05-23T12:25:20.336Z,11.70
2018-05-23T12:26:20.141Z,7.60
2018-05-23T12:27:20.226Z,7.30
2018-05-23T12:28:20.280Z,9.20
2018-05-23T12:29:20.354Z,9.10
2018-05-23T12:30:20.418Z,9.10
2018-05-23T12:31:20.489Z,7.70
2018-05-23T12:32:20.557Z,12.40
2018-05-23T12:33:20.660Z,9.90
2018-05-23T12:34:20.694Z,7.90
2018-05-23T12:35:20.765Z,9.80
2018-05-23T12:36:20.834Z,8.30
2018-05-23T12:37:20.903Z,6.80
2018-05-23T12:38:20.970Z,7.10
2018-05-23T12:39:21.045Z,7.80
2018-05-23T12:40:21.111Z,7.90
2018-05-23T12:41:21.180Z,9.40
2018-05-23T12:42:21.250Z,8.00
2018-05-23T12:43:21.320Z,8.80
2018-05-23T12:44:21.391Z,6.60
2018-05-23T12:45:21.461Z,5.80
2018-05-23T12:46:21.532Z,6.20
2018-05-23T12:47:21.603Z,8.20
2018-05-23T12:48:21.676Z,10.90
2018-05-23T12:49:21.747Z,8.20
2018-05-23T12:50:21.817Z,7.70
2018-05-23T12:51:21.891Z,6.40
2018-05-23T12:52:21.963Z,6.10
2018-05-23T12:53:22.039Z,8.30
2018-05-23T12:54:22.108Z,7.60
2018-05-23T12:55:22.180Z,7.00
2018-05-23T12:56:22.254Z,6.00
2018-05-23T12:57:22.327Z,8.40
2018-05-23T12:58:22.399Z,5.80
2018-05-23T12:59:22.474Z,6.40
2018-05-23T13:00:23.218Z,7.90
2018-05-23T13:01:23.341Z,7.10
2018-05-23T13:02:22.695Z,8.00
2018-05-23T13:03:22.874Z,6.30
2018-05-23T13:04:22.844Z,7.80
2018-05-23T13:05:22.918Z,8.00
2018-05-23T13:06:22.992Z,6.00
2018-05-23T13:07:23.066Z,7.90
2018-05-23T13:08:23.141Z,6.20
2018-05-23T13:09:23.217Z,5.90
2018-05-23T13:10:23.288Z,7.70
2018-05-23T13:11:23.367Z,8.00
2018-05-23T13:12:23.458Z,6.90
2018-05-23T13:13:23.513Z,6.10